Terminal Aerodrome Forecast
Issued by NWS

Home | Current Version | Previous Version | Text Only | Print | Product List | Glossary On
Versions: 1 2 3 4 5 6 7 8 9 10 11 12 13 14
205
FTUS44 KTSA 281727
TAFMLC
TAF
KMLC 281727Z 2818/2918 19008KT P6SM BKN025
     FM282000 17008KT P6SM BKN035
     FM290200 10007KT P6SM VCTS BKN040CB
     FM290600 15008KT P6SM VCTS OVC015CB
      TEMPO 2908/2912 2SM TSRA BR BKN020CB
     FM291200 17007KT 4SM -TSRA OVC010CB=

USA.gov is the U.S. government's official web portal to all federal, state and local government web resources and services.